sensor_id;sensor_type;location;lat;lon;timestamp;pressure;altitude;pressure_sealevel;temperature;humidity
72086;BME280;64750;52.134;5.424;2023-04-20T00:01:52;102609.81;;;9.82;39.11
72086;BME280;64750;52.134;5.424;2023-04-20T00:04:19;102605.72;;;9.70;39.39
72086;BME280;64750;52.134;5.424;2023-04-20T00:06:45;102595.28;;;9.68;39.46
72086;BME280;64750;52.134;5.424;2023-04-20T00:09:12;102600.69;;;9.62;39.74
72086;BME280;64750;52.134;5.424;2023-04-20T00:11:40;102606.41;;;9.45;40.17
72086;BME280;64750;52.134;5.424;2023-04-20T00:14:06;102591.47;;;9.49;40.47
72086;BME280;64750;52.134;5.424;2023-04-20T00:16:32;102586.28;;;9.46;40.48
72086;BME280;64750;52.134;5.424;2023-04-20T00:18:59;102574.94;;;9.45;40.43
72086;BME280;64750;52.134;5.424;2023-04-20T00:21:26;102572.41;;;9.41;40.77
72086;BME280;64750;52.134;5.424;2023-04-20T00:23:52;102571.47;;;9.43;40.80
72086;BME280;64750;52.134;5.424;2023-04-20T00:26:19;102573.38;;;9.38;40.91
72086;BME280;64750;52.134;5.424;2023-04-20T00:28:46;102570.88;;;9.33;41.57
72086;BME280;64750;52.134;5.424;2023-04-20T00:31:12;102549.00;;;9.34;41.45
72086;BME280;64750;52.134;5.424;2023-04-20T00:33:39;102548.94;;;9.36;41.58
72086;BME280;64750;52.134;5.424;2023-04-20T00:36:06;102538.50;;;9.33;42.10
72086;BME280;64750;52.134;5.424;2023-04-20T00:38:32;102535.81;;;9.36;41.90
72086;BME280;64750;52.134;5.424;2023-04-20T00:40:59;102524.50;;;9.34;42.10
72086;BME280;64750;52.134;5.424;2023-04-20T00:43:25;102529.31;;;9.18;42.91
72086;BME280;64750;52.134;5.424;2023-04-20T00:45:52;102516.22;;;9.16;42.95
72086;BME280;64750;52.134;5.424;2023-04-20T00:48:19;102513.56;;;9.18;43.41
72086;BME280;64750;52.134;5.424;2023-04-20T00:50:47;102514.59;;;9.12;43.82
72086;BME280;64750;52.134;5.424;2023-04-20T00:53:14;102500.56;;;9.13;43.97
72086;BME280;64750;52.134;5.424;2023-04-20T00:55:42;102503.16;;;9.15;44.66
72086;BME280;64750;52.134;5.424;2023-04-20T00:58:09;102498.84;;;9.12;44.87
72086;BME280;64750;52.134;5.424;2023-04-20T01:00:37;102493.53;;;9.15;44.89
72086;BME280;64750;52.134;5.424;2023-04-20T01:03:05;102484.88;;;9.12;45.11
72086;BME280;64750;52.134;5.424;2023-04-20T01:05:32;102476.88;;;9.16;45.60
72086;BME280;64750;52.134;5.424;2023-04-20T01:07:59;102473.50;;;9.11;45.76
72086;BME280;64750;52.134;5.424;2023-04-20T01:10:25;102473.72;;;9.05;45.77
72086;BME280;64750;52.134;5.424;2023-04-20T01:12:52;102471.03;;;9.07;46.17
72086;BME280;64750;52.134;5.424;2023-04-20T01:15:18;102472.09;;;8.99;46.48
72086;BME280;64750;52.134;5.424;2023-04-20T01:17:44;102461.03;;;8.90;46.81
72086;BME280;64750;52.134;5.424;2023-04-20T01:20:11;102460.88;;;8.94;46.88
72086;BME280;64750;52.134;5.424;2023-04-20T01:22:45;102467.78;;;8.97;46.56
72086;BME280;64750;52.134;5.424;2023-04-20T01:25:13;102461.19;;;8.83;47.25
72086;BME280;64750;52.134;5.424;2023-04-20T01:27:39;102456.00;;;8.80;47.25
72086;BME280;64750;52.134;5.424;2023-04-20T01:30:06;102461.19;;;8.83;47.43
72086;BME280;64750;52.134;5.424;2023-04-20T01:32:33;102446.38;;;8.81;47.72
72086;BME280;64750;52.134;5.424;2023-04-20T01:35:01;102438.53;;;8.79;47.62
72086;BME280;64750;52.134;5.424;2023-04-20T01:37:28;102438.53;;;8.79;47.50
72086;BME280;64750;52.134;5.424;2023-04-20T01:39:55;102438.72;;;8.73;47.80
72086;BME280;64750;52.134;5.424;2023-04-20T01:42:22;102431.88;;;8.67;48.33
72086;BME280;64750;52.134;5.424;2023-04-20T01:44:48;102432.66;;;8.71;48.31
72086;BME280;64750;52.134;5.424;2023-04-20T01:47:15;102430.13;;;8.68;48.43
72086;BME280;64750;52.134;5.424;2023-04-20T01:49:41;102431.09;;;8.64;48.92
72086;BME280;64750;52.134;5.424;2023-04-20T01:52:08;102425.03;;;8.62;49.13
72086;BME280;64750;52.134;5.424;2023-04-20T01:54:34;102423.31;;;8.61;49.77
72086;BME280;64750;52.134;5.424;2023-04-20T01:57:02;102423.38;;;8.59;50.06
72086;BME280;64750;52.134;5.424;2023-04-20T01:59:29;102421.69;;;8.57;50.16
72086;BME280;64750;52.134;5.424;2023-04-20T02:01:55;102423.47;;;8.54;50.36
72086;BME280;64750;52.134;5.424;2023-04-20T02:04:23;102421.06;;;8.47;51.16
72086;BME280;64750;52.134;5.424;2023-04-20T02:06:49;102413.97;;;8.50;51.08
72086;BME280;64750;52.134;5.424;2023-04-20T02:09:16;102406.81;;;8.57;51.61
72086;BME280;64750;52.134;5.424;2023-04-20T02:11:42;102401.31;;;8.66;51.50
72086;BME280;64750;52.134;5.424;2023-04-20T02:14:09;102402.94;;;8.72;51.91
72086;BME280;64750;52.134;5.424;2023-04-20T02:16:35;102402.03;;;8.73;52.28
72086;BME280;64750;52.134;5.424;2023-04-20T02:19:02;102392.41;;;8.74;52.54
72086;BME280;64750;52.134;5.424;2023-04-20T02:21:29;102388.66;;;8.82;52.47
72086;BME280;64750;52.134;5.424;2023-04-20T02:23:56;102383.41;;;8.82;53.00
72086;BME280;64750;52.134;5.424;2023-04-20T02:26:22;102378.13;;;8.84;53.03
72086;BME280;64750;52.134;5.424;2023-04-20T02:28:49;102377.13;;;8.88;53.09
72086;BME280;64750;52.134;5.424;2023-04-20T02:31:15;102370.94;;;8.91;53.41
72086;BME280;64750;52.134;5.424;2023-04-20T02:33:42;102368.38;;;8.89;53.77
72086;BME280;64750;52.134;5.424;2023-04-20T02:36:09;102364.91;;;8.89;53.68
72086;BME280;64750;52.134;5.424;2023-04-20T02:38:35;102361.44;;;8.86;53.98
72086;BME280;64750;52.134;5.424;2023-04-20T02:41:03;102350.16;;;8.84;53.97
72086;BME280;64750;52.134;5.424;2023-04-20T02:43:29;102351.91;;;8.84;54.30
72086;BME280;64750;52.134;5.424;2023-04-20T02:45:56;102347.63;;;8.81;54.58
72086;BME280;64750;52.134;5.424;2023-04-20T02:48:22;102341.47;;;8.82;54.43
72086;BME280;64750;52.134;5.424;2023-04-20T02:50:48;102334.44;;;8.83;54.88
72086;BME280;64750;52.134;5.424;2023-04-20T02:53:15;102328.25;;;8.85;54.84
72086;BME280;64750;52.134;5.424;2023-04-20T02:55:41;102337.94;;;8.83;54.54
72086;BME280;64750;52.134;5.424;2023-04-20T02:58:07;102327.41;;;8.85;54.58
72086;BME280;64750;52.134;5.424;2023-04-20T03:00:34;102326.50;;;8.86;54.67
72086;BME280;64750;52.134;5.424;2023-04-20T03:03:00;102332.56;;;8.88;54.66
72086;BME280;64750;52.134;5.424;2023-04-20T03:05:27;102330.84;;;8.87;55.21
72086;BME280;64750;52.134;5.424;2023-04-20T03:07:55;102325.78;;;8.81;55.12
72086;BME280;64750;52.134;5.424;2023-04-20T03:10:21;102326.56;;;8.84;55.05
72086;BME280;64750;52.134;5.424;2023-04-20T03:12:48;102323.00;;;8.87;55.24
72086;BME280;64750;52.134;5.424;2023-04-20T03:15:14;102323.72;;;8.92;55.38
72086;BME280;64750;52.134;5.424;2023-04-20T03:17:42;102314.19;;;8.90;55.22
72086;BME280;64750;52.134;5.424;2023-04-20T03:20:08;102311.50;;;8.91;55.61
72086;BME280;64750;52.134;5.424;2023-04-20T03:22:35;102309.66;;;8.95;55.40
72086;BME280;64750;52.134;5.424;2023-04-20T03:25:01;102310.44;;;8.97;55.02
72086;BME280;64750;52.134;5.424;2023-04-20T03:27:27;102309.69;;;8.93;55.07
72086;BME280;64750;52.134;5.424;2023-04-20T03:29:54;102313.97;;;8.96;55.52
72086;BME280;64750;52.134;5.424;2023-04-20T03:32:20;102302.59;;;8.97;55.05
72086;BME280;64750;52.134;5.424;2023-04-20T03:34:47;102311.28;;;8.99;55.31
72086;BME280;64750;52.134;5.424;2023-04-20T03:37:13;102312.06;;;9.01;55.50
72086;BME280;64750;52.134;5.424;2023-04-20T03:39:39;102304.97;;;9.05;55.29
72086;BME280;64750;52.134;5.424;2023-04-20T03:42:06;102308.47;;;9.05;55.44
72086;BME280;64750;52.134;5.424;2023-04-20T03:44:32;102291.03;;;9.04;55.33
72086;BME280;64750;52.134;5.424;2023-04-20T03:46:59;102297.09;;;9.05;55.08
72086;BME280;64750;52.134;5.424;2023-04-20T03:49:25;102298.88;;;9.04;55.37
72086;BME280;64750;52.134;5.424;2023-04-20T03:51:51;102284.91;;;9.03;55.12
72086;BME280;64750;52.134;5.424;2023-04-20T03:54:18;102293.63;;;9.04;55.57
72086;BME280;64750;52.134;5.424;2023-04-20T03:56:44;102290.19;;;9.02;55.32
72086;BME280;64750;52.134;5.424;2023-04-20T03:59:11;102289.25;;;9.05;55.63
72086;BME280;64750;52.134;5.424;2023-04-20T04:01:37;102287.44;;;9.07;55.69
72086;BME280;64750;52.134;5.424;2023-04-20T04:04:04;102282.28;;;9.03;55.45
72086;BME280;64750;52.134;5.424;2023-04-20T04:06:31;102272.66;;;9.04;56.06
72086;BME280;64750;52.134;5.424;2023-04-20T04:08:57;102267.41;;;9.04;56.13
72086;BME280;64750;52.134;5.424;2023-04-20T04:11:24;102261.16;;;9.08;56.09
72086;BME280;64750;52.134;5.424;2023-04-20T04:13:51;102259.53;;;9.04;56.00
72086;BME280;64750;52.134;5.424;2023-04-20T04:16:17;102265.59;;;9.06;56.38
72086;BME280;64750;52.134;5.424;2023-04-20T04:18:44;102262.88;;;9.09;56.10
72086;BME280;64750;52.134;5.424;2023-04-20T04:21:10;102258.41;;;9.13;56.10
72086;BME280;64750;52.134;5.424;2023-04-20T04:23:37;102249.59;;;9.14;56.03
72086;BME280;64750;52.134;5.424;2023-04-20T04:26:03;102243.63;;;9.10;56.33
72086;BME280;64750;52.134;5.424;2023-04-20T04:28:30;102246.28;;;9.09;56.20
72086;BME280;64750;52.134;5.424;2023-04-20T04:30:57;102237.56;;;9.08;56.72
72086;BME280;64750;52.134;5.424;2023-04-20T04:33:26;102238.47;;;9.07;56.46
72086;BME280;64750;52.134;5.424;2023-04-20T04:35:53;102241.03;;;9.09;56.57
72086;BME280;64750;52.134;5.424;2023-04-20T04:38:20;102236.66;;;9.09;57.04
72086;BME280;64750;52.134;5.424;2023-04-20T04:40:46;102221.81;;;9.08;56.72
72086;BME280;64750;52.134;5.424;2023-04-20T04:43:13;102225.28;;;9.09;56.89
72086;BME280;64750;52.134;5.424;2023-04-20T04:45:39;102225.28;;;9.09;57.04
72086;BME280;64750;52.134;5.424;2023-04-20T04:48:08;102221.72;;;9.11;57.31
72086;BME280;64750;52.134;5.424;2023-04-20T04:50:38;102229.56;;;9.11;57.50
72086;BME280;64750;52.134;5.424;2023-04-20T04:53:04;102227.97;;;9.07;57.93
72086;BME280;64750;52.134;5.424;2023-04-20T04:55:31;102220.19;;;9.04;58.29
72086;BME280;64750;52.134;5.424;2023-04-20T04:57:58;102230.75;;;9.02;58.78
72086;BME280;64750;52.134;5.424;2023-04-20T05:00:24;102232.66;;;8.97;59.07
72086;BME280;64750;52.134;5.424;2023-04-20T05:02:51;102238.84;;;8.95;59.46
72086;BME280;64750;52.134;5.424;2023-04-20T05:05:20;102239.69;;;8.95;59.58
72086;BME280;64750;52.134;5.424;2023-04-20T05:07:47;102237.91;;;8.97;59.60
72086;BME280;64750;52.134;5.424;2023-04-20T05:10:13;102223.91;;;8.97;59.74
72086;BME280;64750;52.134;5.424;2023-04-20T05:12:40;102223.31;;;8.89;59.09
72086;BME280;64750;52.134;5.424;2023-04-20T05:15:07;102228.63;;;8.85;59.10
72086;BME280;64750;52.134;5.424;2023-04-20T05:17:33;102223.38;;;8.85;59.46
72086;BME280;64750;52.134;5.424;2023-04-20T05:20:00;102224.31;;;8.84;59.43
72086;BME280;64750;52.134;5.424;2023-04-20T05:22:26;102233.88;;;8.85;59.50
72086;BME280;64750;52.134;5.424;2023-04-20T05:24:53;102234.81;;;8.83;59.18
72086;BME280;64750;52.134;5.424;2023-04-20T05:27:19;102225.22;;;8.83;59.26
72086;BME280;64750;52.134;5.424;2023-04-20T05:29:45;102223.50;;;8.82;59.15
72086;BME280;64750;52.134;5.424;2023-04-20T05:32:12;102230.34;;;8.86;59.16
72086;BME280;64750;52.134;5.424;2023-04-20T05:34:38;102213.66;;;8.89;59.14
72086;BME280;64750;52.134;5.424;2023-04-20T05:37:05;102226.72;;;8.91;58.79
72086;BME280;64750;52.134;5.424;2023-04-20T05:39:31;102225.06;;;8.88;59.05
72086;BME280;64750;52.134;5.424;2023-04-20T05:41:58;102227.66;;;8.90;59.01
72086;BME280;64750;52.134;5.424;2023-04-20T05:44:24;102227.59;;;8.91;59.11
72086;BME280;64750;52.134;5.424;2023-04-20T05:46:51;102222.41;;;8.90;59.15
72086;BME280;64750;52.134;5.424;2023-04-20T05:49:17;102229.34;;;8.91;59.62
72086;BME280;64750;52.134;5.424;2023-04-20T05:51:44;102229.31;;;8.92;59.44
72086;BME280;64750;52.134;5.424;2023-04-20T05:54:11;102224.22;;;8.88;58.94
72086;BME280;64750;52.134;5.424;2023-04-20T05:56:38;102227.78;;;8.85;58.99
72086;BME280;64750;52.134;5.424;2023-04-20T05:59:04;102219.06;;;8.84;58.91
72086;BME280;64750;52.134;5.424;2023-04-20T06:01:31;102219.16;;;8.81;58.58
72086;BME280;64750;52.134;5.424;2023-04-20T06:03:57;102219.97;;;8.83;58.89
72086;BME280;64750;52.134;5.424;2023-04-20T06:06:24;102209.47;;;8.83;58.48
72086;BME280;64750;52.134;5.424;2023-04-20T06:08:51;102216.44;;;8.84;58.29
72086;BME280;64750;52.134;5.424;2023-04-20T06:11:18;102210.28;;;8.85;57.72
72086;BME280;64750;52.134;5.424;2023-04-20T06:13:44;102216.28;;;8.89;58.16
72086;BME280;64750;52.134;5.424;2023-04-20T06:16:11;102207.41;;;8.93;57.83
72086;BME280;64750;52.134;5.424;2023-04-20T06:18:37;102206.47;;;8.96;58.09
72086;BME280;64750;52.134;5.424;2023-04-20T06:21:04;102207.38;;;8.95;57.84
72086;BME280;64750;52.134;5.424;2023-04-20T06:23:30;102196.91;;;8.95;57.50
72086;BME280;64750;52.134;5.424;2023-04-20T06:25:56;102201.28;;;8.94;57.85
72086;BME280;64750;52.134;5.424;2023-04-20T06:28:23;102199.66;;;8.90;57.71
72086;BME280;64750;52.134;5.424;2023-04-20T06:30:49;102197.94;;;8.89;57.63
72086;BME280;64750;52.134;5.424;2023-04-20T06:33:16;102207.56;;;8.89;57.90
72086;BME280;64750;52.134;5.424;2023-04-20T06:35:42;102195.38;;;8.88;58.15
72086;BME280;64750;52.134;5.424;2023-04-20T06:38:09;102196.38;;;8.83;58.04
72086;BME280;64750;52.134;5.424;2023-04-20T06:40:36;102194.59;;;8.84;58.47
72086;BME280;64750;52.134;5.424;2023-04-20T06:43:02;102192.03;;;8.82;58.83
72086;BME280;64750;52.134;5.424;2023-04-20T06:45:29;102197.28;;;8.82;59.57
72086;BME280;64750;52.134;5.424;2023-04-20T06:47:58;102195.69;;;8.77;60.94
72086;BME280;64750;52.134;5.424;2023-04-20T06:50:24;102183.44;;;8.77;61.63
72086;BME280;64750;52.134;5.424;2023-04-20T06:52:51;102181.53;;;8.82;62.03
72086;BME280;64750;52.134;5.424;2023-04-20T06:55:17;102186.78;;;8.82;62.78
72086;BME280;64750;52.134;5.424;2023-04-20T06:57:43;102184.34;;;8.76;63.20
72086;BME280;64750;52.134;5.424;2023-04-20T07:00:11;102197.56;;;8.73;63.88
72086;BME280;64750;52.134;5.424;2023-04-20T07:02:44;102187.22;;;8.68;63.70
72086;BME280;64750;52.134;5.424;2023-04-20T07:05:12;102200.38;;;8.67;63.82
72086;BME280;64750;52.134;5.424;2023-04-20T07:07:39;102204.78;;;8.65;63.46
72086;BME280;64750;52.134;5.424;2023-04-20T07:10:10;102195.31;;;8.61;64.27
72086;BME280;64750;52.134;5.424;2023-04-20T07:12:38;102212.03;;;8.57;64.30
72086;BME280;64750;52.134;5.424;2023-04-20T07:15:08;102210.38;;;8.54;65.17
72086;BME280;64750;52.134;5.424;2023-04-20T07:17:35;102209.63;;;8.49;65.76
72086;BME280;64750;52.134;5.424;2023-04-20T07:20:01;102208.84;;;8.45;65.39
72086;BME280;64750;52.134;5.424;2023-04-20T07:22:37;102203.53;;;8.48;65.71
72086;BME280;64750;52.134;5.424;2023-04-20T07:25:05;102200.00;;;8.49;66.03
72086;BME280;64750;52.134;5.424;2023-04-20T07:27:37;102205.19;;;8.51;66.31
72086;BME280;64750;52.134;5.424;2023-04-20T07:30:05;102208.59;;;8.54;66.46
72086;BME280;64750;52.134;5.424;2023-04-20T07:32:33;102212.94;;;8.56;66.21
72086;BME280;64750;52.134;5.424;2023-04-20T07:34:59;102215.84;;;8.46;65.81
72086;BME280;64750;52.134;5.424;2023-04-20T07:37:26;102208.00;;;8.45;66.11
72086;BME280;64750;52.134;5.424;2023-04-20T07:39:52;102217.56;;;8.47;65.93
72086;BME280;64750;52.134;5.424;2023-04-20T07:42:19;102213.25;;;8.43;66.18
72086;BME280;64750;52.134;5.424;2023-04-20T07:44:47;102213.28;;;8.42;66.26
72086;BME280;64750;52.134;5.424;2023-04-20T07:47:13;102205.59;;;8.37;66.02
72086;BME280;64750;52.134;5.424;2023-04-20T07:49:41;102218.59;;;8.40;65.84
72086;BME280;64750;52.134;5.424;2023-04-20T07:52:07;102205.75;;;8.31;65.81
72086;BME280;64750;52.134;5.424;2023-04-20T07:54:43;102211.84;;;8.31;66.18
72086;BME280;64750;52.134;5.424;2023-04-20T07:57:09;102213.69;;;8.28;65.90
72086;BME280;64750;52.134;5.424;2023-04-20T07:59:36;102211.78;;;8.33;65.84
72086;BME280;64750;52.134;5.424;2023-04-20T08:02:02;102218.03;;;8.29;65.80
72086;BME280;64750;52.134;5.424;2023-04-20T08:04:29;102212.06;;;8.24;66.33
72086;BME280;64750;52.134;5.424;2023-04-20T08:06:56;102211.16;;;8.25;66.29
72086;BME280;64750;52.134;5.424;2023-04-20T08:09:23;102206.88;;;8.22;66.25
72086;BME280;64750;52.134;5.424;2023-04-20T08:11:51;102189.50;;;8.19;66.81
72086;BME280;64750;52.134;5.424;2023-04-20T08:14:17;102195.63;;;8.18;66.49
72086;BME280;64750;52.134;5.424;2023-04-20T08:16:44;102191.28;;;8.17;66.53
72086;BME280;64750;52.134;5.424;2023-04-20T08:19:11;102191.22;;;8.20;66.31
72086;BME280;64750;52.134;5.424;2023-04-20T08:21:38;102193.72;;;8.24;66.40
72086;BME280;64750;52.134;5.424;2023-04-20T08:24:06;102189.16;;;8.30;66.44
72086;BME280;64750;52.134;5.424;2023-04-20T08:26:33;102175.06;;;8.34;66.49
72086;BME280;64750;52.134;5.424;2023-04-20T08:29:00;102186.16;;;8.44;65.84
72086;BME280;64750;52.134;5.424;2023-04-20T08:31:27;102170.91;;;8.59;66.14
72086;BME280;64750;52.134;5.424;2023-04-20T08:33:53;102178.56;;;8.65;65.92
72086;BME280;64750;52.134;5.424;2023-04-20T08:36:20;102174.16;;;8.67;65.91
72086;BME280;64750;52.134;5.424;2023-04-20T08:38:55;102173.25;;;8.68;65.69
72086;BME280;64750;52.134;5.424;2023-04-20T08:41:24;102169.81;;;8.66;65.53
72086;BME280;64750;52.134;5.424;2023-04-20T08:43:51;102168.28;;;8.59;65.25
72086;BME280;64750;52.134;5.424;2023-04-20T08:46:18;102171.81;;;8.58;65.61
72086;BME280;64750;52.134;5.424;2023-04-20T08:48:45;102167.44;;;8.58;65.63
72086;BME280;64750;52.134;5.424;2023-04-20T08:51:14;102169.22;;;8.58;65.33
72086;BME280;64750;52.134;5.424;2023-04-20T08:53:41;102167.38;;;8.60;65.96
72086;BME280;64750;52.134;5.424;2023-04-20T08:56:08;102160.53;;;8.56;66.09
72086;BME280;64750;52.134;5.424;2023-04-20T08:58:34;102150.81;;;8.59;66.29
72086;BME280;64750;52.134;5.424;2023-04-20T09:01:01;102152.31;;;8.66;66.30
72086;BME280;64750;52.134;5.424;2023-04-20T09:03:35;102153.97;;;8.69;66.25
72086;BME280;64750;52.134;5.424;2023-04-20T09:06:13;102152.94;;;8.75;66.14
72086;BME280;64750;52.134;5.424;2023-04-20T09:08:40;102161.56;;;8.78;65.82
72086;BME280;64750;52.134;5.424;2023-04-20T09:11:26;102160.66;;;8.79;65.88
72086;BME280;64750;52.134;5.424;2023-04-20T09:14:00;102150.94;;;8.83;65.43
72086;BME280;64750;52.134;5.424;2023-04-20T09:16:27;102143.78;;;8.88;65.29
72086;BME280;64750;52.134;5.424;2023-04-20T09:18:55;102142.53;;;9.00;65.58
72086;BME280;64750;52.134;5.424;2023-04-20T09:21:24;102152.59;;;9.12;65.73
72086;BME280;64750;52.134;5.424;2023-04-20T09:26:23;102144.59;;;9.17;64.51
72086;BME280;64750;52.134;5.424;2023-04-20T09:28:50;102140.16;;;9.19;64.82
72086;BME280;64750;52.134;5.424;2023-04-20T09:31:18;102128.47;;;9.28;64.59
72086;BME280;64750;52.134;5.424;2023-04-20T09:33:54;102124.75;;;9.35;64.44
72086;BME280;64750;52.134;5.424;2023-04-20T09:36:21;102120.25;;;9.39;63.99
72086;BME280;64750;52.134;5.424;2023-04-20T09:38:47;102133.25;;;9.42;64.06
72086;BME280;64750;52.134;5.424;2023-04-20T09:41:15;102128.88;;;9.42;63.68
72086;BME280;64750;52.134;5.424;2023-04-20T09:43:43;102133.44;;;9.37;63.36
72086;BME280;64750;52.134;5.424;2023-04-20T09:46:10;102117.00;;;9.32;63.17
72086;BME280;64750;52.134;5.424;2023-04-20T09:48:37;102125.78;;;9.31;63.67
72086;BME280;64750;52.134;5.424;2023-04-20T09:51:03;102129.31;;;9.30;63.25
72086;BME280;64750;52.134;5.424;2023-04-20T09:53:30;102124.81;;;9.33;63.34
72086;BME280;64750;52.134;5.424;2023-04-20T09:55:59;102121.28;;;9.34;63.06
72086;BME280;64750;52.134;5.424;2023-04-20T09:58:27;102123.78;;;9.38;63.24
72086;BME280;64750;52.134;5.424;2023-04-20T10:00:53;102127.22;;;9.40;63.17
72086;BME280;64750;52.134;5.424;2023-04-20T10:03:20;102121.03;;;9.42;63.27
72086;BME280;64750;52.134;5.424;2023-04-20T10:05:47;102124.50;;;9.43;63.59
72086;BME280;64750;52.134;5.424;2023-04-20T10:08:13;102107.22;;;9.37;64.64
72086;BME280;64750;52.134;5.424;2023-04-20T10:10:48;102112.59;;;9.32;65.13
72086;BME280;64750;52.134;5.424;2023-04-20T10:13:15;102108.31;;;9.30;65.89
72086;BME280;64750;52.134;5.424;2023-04-20T10:15:44;102104.72;;;9.32;65.78
72086;BME280;64750;52.134;5.424;2023-04-20T10:18:21;102100.38;;;9.31;65.87
72086;BME280;64750;52.134;5.424;2023-04-20T10:21:04;102102.09;;;9.32;65.72
72086;BME280;64750;52.134;5.424;2023-04-20T10:23:31;102105.53;;;9.34;65.59
72086;BME280;64750;52.134;5.424;2023-04-20T10:25:58;102101.19;;;9.33;65.79
72086;BME280;64750;52.134;5.424;2023-04-20T10:28:40;102101.13;;;9.35;65.79
72086;BME280;64750;52.134;5.424;2023-04-20T10:31:10;102095.91;;;9.35;66.16
72086;BME280;64750;52.134;5.424;2023-04-20T10:33:51;102104.25;;;9.46;66.59
72086;BME280;64750;52.134;5.424;2023-04-20T10:36:31;102092.59;;;9.53;65.20
72086;BME280;64750;52.134;5.424;2023-04-20T10:38:59;102094.25;;;9.56;63.46
72086;BME280;64750;52.134;5.424;2023-04-20T10:41:30;102084.69;;;9.55;61.51
72086;BME280;64750;52.134;5.424;2023-04-20T10:44:07;102088.28;;;9.52;61.12
72086;BME280;64750;52.134;5.424;2023-04-20T10:46:33;102085.66;;;9.52;61.61
72086;BME280;64750;52.134;5.424;2023-04-20T10:49:00;102084.63;;;9.57;61.93
72086;BME280;64750;52.134;5.424;2023-04-20T10:51:27;102087.13;;;9.60;61.80
72086;BME280;64750;52.134;5.424;2023-04-20T10:54:04;102085.31;;;9.62;61.59
72086;BME280;64750;52.134;5.424;2023-04-20T10:56:50;102080.84;;;9.64;61.54
72086;BME280;64750;52.134;5.424;2023-04-20T10:59:20;102071.16;;;9.66;61.66
72086;BME280;64750;52.134;5.424;2023-04-20T11:01:49;102063.06;;;9.72;60.60
72086;BME280;64750;52.134;5.424;2023-04-20T11:04:16;102067.34;;;9.75;59.32
72086;BME280;64750;52.134;5.424;2023-04-20T11:06:46;102061.97;;;9.78;58.61
72086;BME280;64750;52.134;5.424;2023-04-20T11:09:21;102045.78;;;9.90;59.10
72086;BME280;64750;52.134;5.424;2023-04-20T11:12:10;102051.97;;;10.11;59.13
72086;BME280;64750;52.134;5.424;2023-04-20T11:14:54;102049.09;;;10.17;59.07
72086;BME280;64750;52.134;5.424;2023-04-20T11:17:33;102052.41;;;10.23;57.50
72086;BME280;64750;52.134;5.424;2023-04-20T11:20:10;102052.31;;;10.26;56.85
72086;BME280;64750;52.134;5.424;2023-04-20T11:22:38;102048.75;;;10.27;56.80
72086;BME280;64750;52.134;5.424;2023-04-20T11:25:07;102043.38;;;10.30;57.58
72086;BME280;64750;52.134;5.424;2023-04-20T11:27:35;102045.19;;;10.28;56.65
72086;BME280;64750;52.134;5.424;2023-04-20T11:30:03;102046.25;;;10.24;55.79
72086;BME280;64750;52.134;5.424;2023-04-20T11:32:31;102032.31;;;10.22;55.35
72086;BME280;64750;52.134;5.424;2023-04-20T11:35:03;102036.69;;;10.21;55.29
72086;BME280;64750;52.134;5.424;2023-04-20T11:37:45;102039.09;;;10.27;55.42
72086;BME280;64750;52.134;5.424;2023-04-20T11:40:12;102024.97;;;10.30;55.03
72086;BME280;64750;52.134;5.424;2023-04-20T11:42:40;102027.47;;;10.33;55.72
72086;BME280;64750;52.134;5.424;2023-04-20T11:45:07;102033.50;;;10.37;55.82
72086;BME280;64750;52.134;5.424;2023-04-20T11:47:34;102031.53;;;10.42;55.24
72086;BME280;64750;52.134;5.424;2023-04-20T11:50:01;102036.94;;;10.39;55.21
72086;BME280;64750;52.134;5.424;2023-04-20T11:52:27;102032.69;;;10.34;54.80
72086;BME280;64750;52.134;5.424;2023-04-20T11:54:54;102034.56;;;10.31;55.09
72086;BME280;64750;52.134;5.424;2023-04-20T11:57:20;102031.16;;;10.29;55.37
72086;BME280;64750;52.134;5.424;2023-04-20T11:59:48;102026.75;;;10.29;55.47
72086;BME280;64750;52.134;5.424;2023-04-20T12:02:15;102033.00;;;10.27;55.44
72086;BME280;64750;52.134;5.424;2023-04-20T12:04:42;102027.06;;;10.22;55.41
72086;BME280;64750;52.134;5.424;2023-04-20T12:07:08;102037.81;;;10.15;55.40
72086;BME280;64750;52.134;5.424;2023-04-20T12:09:35;102035.19;;;10.15;56.56
72086;BME280;64750;52.134;5.424;2023-04-20T12:12:03;102029.03;;;10.16;56.37
72086;BME280;64750;52.134;5.424;2023-04-20T12:14:30;102037.88;;;10.14;56.43
72086;BME280;64750;52.134;5.424;2023-04-20T12:16:59;102032.66;;;10.12;56.09
72086;BME280;64750;52.134;5.424;2023-04-20T12:19:26;102032.88;;;10.08;56.07
72086;BME280;64750;52.134;5.424;2023-04-20T12:21:53;102036.50;;;10.04;56.26
72086;BME280;64750;52.134;5.424;2023-04-20T12:24:19;102023.44;;;10.02;56.40
72086;BME280;64750;52.134;5.424;2023-04-20T12:26:46;102025.28;;;10.00;56.79
72086;BME280;64750;52.134;5.424;2023-04-20T12:29:13;102026.97;;;10.01;56.47
72086;BME280;64750;52.134;5.424;2023-04-20T12:31:39;102016.47;;;10.01;56.59
72086;BME280;64750;52.134;5.424;2023-04-20T12:34:06;102012.81;;;10.05;56.86
72086;BME280;64750;52.134;5.424;2023-04-20T12:36:32;102012.44;;;10.14;55.91
72086;BME280;64750;52.134;5.424;2023-04-20T12:39:00;102011.41;;;10.18;56.03
72086;BME280;64750;52.134;5.424;2023-04-20T12:41:26;102006.72;;;10.27;55.78
72086;BME280;64750;52.134;5.424;2023-04-20T12:43:53;102008.31;;;10.31;55.95
72086;BME280;64750;52.134;5.424;2023-04-20T12:46:19;102011.69;;;10.33;56.03
72086;BME280;64750;52.134;5.424;2023-04-20T12:48:46;102008.16;;;10.34;56.13
72086;BME280;64750;52.134;5.424;2023-04-20T12:51:13;102000.22;;;10.37;55.47
72086;BME280;64750;52.134;5.424;2023-04-20T12:53:40;102003.53;;;10.41;55.84
72086;BME280;64750;52.134;5.424;2023-04-20T12:56:06;101998.91;;;10.47;55.96
72086;BME280;64750;52.134;5.424;2023-04-20T12:58:33;102010.03;;;10.54;55.26
72086;BME280;64750;52.134;5.424;2023-04-20T13:00:59;102012.72;;;10.53;55.43
72086;BME280;64750;52.134;5.424;2023-04-20T13:03:26;102004.03;;;10.50;55.45